createdAt,value
2018-05-31T00:01:26.899Z,93.20
2018-05-31T00:03:53.125Z,93.30
2018-05-31T00:06:21.311Z,93.40
2018-05-31T00:08:47.555Z,93.40
2018-05-31T00:11:13.808Z,93.50
2018-05-31T00:13:40.043Z,93.60
2018-05-31T00:16:07.021Z,93.80
2018-05-31T00:18:33.248Z,93.80
2018-05-31T00:20:59.503Z,93.90
2018-05-31T00:23:25.707Z,94.00
2018-05-31T00:25:51.953Z,94.10
2018-05-31T00:28:18.197Z,94.20
2018-05-31T00:30:44.418Z,94.30
2018-05-31T00:33:11.063Z,94.50
2018-05-31T00:35:37.334Z,94.70
2018-05-31T00:38:03.580Z,94.90
2018-05-31T00:40:29.867Z,95.20
2018-05-31T00:42:56.865Z,95.70
2018-05-31T00:45:23.117Z,95.80
2018-05-31T00:47:49.329Z,95.80
2018-05-31T00:50:15.617Z,95.90
2018-05-31T00:52:41.855Z,96.00
2018-05-31T00:55:08.096Z,96.00
2018-05-31T00:57:34.341Z,96.10
2018-05-31T01:00:00.563Z,96.10
2018-05-31T01:02:26.804Z,96.10
2018-05-31T01:04:53.056Z,96.30
2018-05-31T01:07:19.304Z,96.40
2018-05-31T01:09:45.530Z,96.40
2018-05-31T01:12:11.829Z,96.60
2018-05-31T01:14:38.066Z,96.70
2018-05-31T01:17:04.289Z,96.80
2018-05-31T01:19:31.296Z,97.10
2018-05-31T01:21:57.515Z,97.10
2018-05-31T01:24:23.752Z,97.10
2018-05-31T01:26:50.166Z,97.20
2018-05-31T01:29:17.114Z,97.30
2018-05-31T01:31:44.089Z,97.50
2018-05-31T01:34:11.856Z,97.50
2018-05-31T01:36:38.834Z,97.50
2018-05-31T01:39:06.906Z,97.40
2018-05-31T01:41:33.274Z,97.30
2018-05-31T01:43:59.526Z,97.20
2018-05-31T01:46:26.526Z,97.20
2018-05-31T01:48:52.774Z,97.20
2018-05-31T01:51:19.010Z,97.20
2018-05-31T01:53:45.292Z,97.20
2018-05-31T01:56:11.531Z,97.30
2018-05-31T01:58:37.750Z,97.40
2018-05-31T02:01:04.012Z,97.50
2018-05-31T02:03:30.525Z,97.70
2018-05-31T02:05:57.537Z,98.10
2018-05-31T02:08:23.789Z,98.10
2018-05-31T02:10:50.051Z,98.20
2018-05-31T02:13:16.284Z,98.60
2018-05-31T02:15:42.511Z,98.30
2018-05-31T02:18:08.766Z,98.40
2018-05-31T02:20:34.992Z,98.50
2018-05-31T02:23:01.228Z,98.50
2018-05-31T02:25:27.484Z,98.60
2018-05-31T02:27:53.716Z,98.40
2018-05-31T02:30:19.937Z,98.40
2018-05-31T02:32:46.189Z,98.40
2018-05-31T02:35:12.431Z,98.50
2018-05-31T02:37:38.679Z,98.60
2018-05-31T02:40:04.947Z,98.60
2018-05-31T02:42:31.948Z,98.70
2018-05-31T02:44:58.165Z,98.70
2018-05-31T02:47:24.531Z,98.80
2018-05-31T02:49:50.743Z,98.80
2018-05-31T02:52:16.971Z,98.80
2018-05-31T02:54:43.977Z,98.90
2018-05-31T02:57:10.209Z,98.90
2018-05-31T02:59:36.436Z,98.90
2018-05-31T03:02:02.699Z,98.90
2018-05-31T03:04:28.940Z,99.40
2018-05-31T03:06:55.178Z,99.70
2018-05-31T03:09:21.426Z,99.20
2018-05-31T03:11:47.657Z,98.70
2018-05-31T03:14:13.869Z,98.60
2018-05-31T03:16:41.010Z,98.20
2018-05-31T03:19:07.279Z,98.10
2018-05-31T03:21:33.564Z,98.10
2018-05-31T03:23:59.964Z,97.90
2018-05-31T03:26:26.178Z,97.50
2018-05-31T03:28:52.391Z,97.30
2018-05-31T03:31:18.647Z,97.50
2018-05-31T03:33:44.874Z,97.80
2018-05-31T03:36:11.115Z,98.10
2018-05-31T03:38:37.371Z,98.40
2018-05-31T03:41:03.632Z,98.30
2018-05-31T03:43:30.591Z,98.00
2018-05-31T03:45:57.022Z,97.90
2018-05-31T03:48:23.248Z,98.10
2018-05-31T03:50:49.472Z,98.30
2018-05-31T03:53:15.714Z,98.40
2018-05-31T03:55:42.685Z,98.70
2018-05-31T03:58:08.918Z,98.70
2018-05-31T04:00:35.153Z,98.90
2018-05-31T04:03:01.378Z,99.00
2018-05-31T04:05:27.634Z,99.10
2018-05-31T04:07:53.914Z,99.20
2018-05-31T04:10:20.910Z,99.40
2018-05-31T04:12:47.154Z,99.40
2018-05-31T04:15:13.424Z,99.50
2018-05-31T04:17:39.652Z,99.50
2018-05-31T04:20:05.900Z,99.60
2018-05-31T04:22:32.158Z,99.70
2018-05-31T04:24:58.378Z,99.80
2018-05-31T04:27:24.601Z,99.90
2018-05-31T04:29:50.857Z,99.90
2018-05-31T04:32:17.102Z,99.90
2018-05-31T04:34:43.333Z,99.90
2018-05-31T04:37:09.607Z,99.90
2018-05-31T04:39:36.665Z,99.90
2018-05-31T04:42:02.917Z,99.90
2018-05-31T04:44:29.927Z,99.90
2018-05-31T04:46:56.168Z,99.90
2018-05-31T04:49:22.418Z,99.90
2018-05-31T04:51:48.661Z,99.90
2018-05-31T04:54:14.887Z,99.90
2018-05-31T04:56:41.117Z,99.90
2018-05-31T04:59:07.373Z,99.90
2018-05-31T05:01:33.613Z,99.90
2018-05-31T05:03:59.835Z,99.90
2018-05-31T05:06:26.073Z,99.90
2018-05-31T05:08:52.287Z,99.90
2018-05-31T05:11:19.282Z,99.90
2018-05-31T05:13:45.549Z,99.90
2018-05-31T05:16:11.786Z,99.90
2018-05-31T05:18:38.011Z,99.90
2018-05-31T05:21:04.279Z,99.70
2018-05-31T05:23:30.497Z,99.60
2018-05-31T05:25:56.719Z,99.40
2018-05-31T05:28:22.970Z,99.20
2018-05-31T05:30:49.226Z,98.90
2018-05-31T05:33:15.474Z,98.80
2018-05-31T05:35:41.734Z,98.90
2018-05-31T05:38:07.956Z,98.60
2018-05-31T05:40:34.171Z,98.40
2018-05-31T05:43:00.406Z,98.30
2018-05-31T05:45:26.640Z,98.00
2018-05-31T05:47:52.876Z,97.80
2018-05-31T05:50:19.273Z,97.70
2018-05-31T05:52:45.505Z,97.60
2018-05-31T05:55:11.734Z,97.40
2018-05-31T05:57:38.122Z,97.20
2018-05-31T06:00:05.120Z,96.70
2018-05-31T06:02:31.340Z,96.70
2018-05-31T06:04:57.597Z,96.50
2018-05-31T06:07:23.818Z,96.20
2018-05-31T06:09:50.095Z,96.10
2018-05-31T06:12:16.289Z,95.80
2018-05-31T06:14:42.542Z,95.70
2018-05-31T06:17:08.754Z,95.80
2018-05-31T06:19:35.764Z,95.60
2018-05-31T06:22:02.040Z,95.60
2018-05-31T06:24:28.302Z,95.50
2018-05-31T06:26:54.566Z,95.60
2018-05-31T06:29:20.792Z,95.60
2018-05-31T06:31:47.018Z,95.70
2018-05-31T06:34:14.008Z,95.30
2018-05-31T06:36:40.227Z,95.30
2018-05-31T06:39:07.218Z,95.10
2018-05-31T06:41:33.448Z,95.10
2018-05-31T06:43:59.667Z,95.20
2018-05-31T06:46:25.900Z,95.40
2018-05-31T06:48:52.138Z,95.10
2018-05-31T06:51:18.379Z,95.00
2018-05-31T06:53:44.605Z,95.10
2018-05-31T06:56:10.884Z,95.00
2018-05-31T06:58:37.878Z,94.90
2018-05-31T07:01:04.104Z,94.90
2018-05-31T07:03:30.485Z,94.90
2018-05-31T07:05:56.700Z,94.60
2018-05-31T07:08:22.923Z,94.50
2018-05-31T07:10:49.177Z,94.70
2018-05-31T07:13:15.373Z,95.00
2018-05-31T07:15:41.586Z,94.80
2018-05-31T07:18:07.824Z,94.80
2018-05-31T07:20:34.064Z,94.70
2018-05-31T07:23:00.276Z,94.60
2018-05-31T07:25:26.515Z,94.40
2018-05-31T07:27:52.727Z,94.10
2018-05-31T07:30:18.991Z,94.00
2018-05-31T07:32:45.222Z,93.80
2018-05-31T07:35:11.456Z,93.60
2018-05-31T07:37:38.452Z,93.60
2018-05-31T07:40:04.719Z,93.50
2018-05-31T07:42:30.931Z,93.50
2018-05-31T07:44:57.183Z,93.40
2018-05-31T07:47:23.470Z,93.30
2018-05-31T07:49:49.699Z,93.20
2018-05-31T07:52:15.903Z,93.00
2018-05-31T07:54:42.147Z,92.80
2018-05-31T07:57:08.362Z,92.60
2018-05-31T07:59:34.599Z,92.40
2018-05-31T08:02:00.851Z,92.20
2018-05-31T08:04:27.091Z,92.20
2018-05-31T08:06:53.302Z,91.90
2018-05-31T08:09:19.562Z,91.90
2018-05-31T08:11:45.769Z,91.60
2018-05-31T08:14:11.986Z,91.30
2018-05-31T08:16:38.242Z,91.00
2018-05-31T08:19:04.475Z,90.90
2018-05-31T08:21:30.698Z,90.40
2018-05-31T08:23:56.941Z,90.40
2018-05-31T08:26:23.161Z,90.00
2018-05-31T08:28:49.378Z,89.80
2018-05-31T08:31:15.627Z,89.20
2018-05-31T08:33:41.847Z,89.10
2018-05-31T08:36:08.084Z,88.00
2018-05-31T08:38:34.382Z,87.80
2018-05-31T08:41:00.596Z,86.90
2018-05-31T08:43:26.826Z,85.90
2018-05-31T08:45:53.076Z,85.80
2018-05-31T08:48:19.297Z,85.40
2018-05-31T08:50:45.516Z,85.10
2018-05-31T08:53:11.775Z,85.30
2018-05-31T08:55:38.037Z,84.30
2018-05-31T08:58:04.256Z,83.40
2018-05-31T09:00:30.520Z,83.40
2018-05-31T09:02:56.742Z,82.60
2018-05-31T09:05:22.966Z,81.80
2018-05-31T09:07:49.216Z,81.00
2018-05-31T09:10:15.444Z,81.40
2018-05-31T09:12:41.678Z,81.60
2018-05-31T09:15:08.695Z,79.30
2018-05-31T09:17:34.960Z,79.20
2018-05-31T09:20:01.189Z,77.70
2018-05-31T09:22:27.482Z,76.80
2018-05-31T09:24:53.741Z,76.70
2018-05-31T09:27:19.959Z,76.60
2018-05-31T09:29:46.201Z,74.90
2018-05-31T09:32:12.412Z,74.40
2018-05-31T09:34:38.639Z,74.10
2018-05-31T09:37:04.896Z,74.10
2018-05-31T09:39:31.178Z,72.80
2018-05-31T09:41:57.407Z,72.00
2018-05-31T09:44:23.670Z,71.50
2018-05-31T09:46:49.882Z,71.20
2018-05-31T09:49:16.093Z,70.40
2018-05-31T09:51:42.363Z,70.20
2018-05-31T09:54:09.359Z,67.10
2018-05-31T09:56:35.593Z,67.10
2018-05-31T09:59:01.866Z,66.30
2018-05-31T10:01:28.102Z,64.50
2018-05-31T10:03:54.320Z,63.20
2018-05-31T10:06:20.719Z,62.10
2018-05-31T10:08:46.955Z,60.00
2018-05-31T10:11:13.189Z,59.00
2018-05-31T10:13:39.450Z,59.40
2018-05-31T10:16:05.693Z,59.40
2018-05-31T10:18:31.919Z,58.50
2018-05-31T10:20:58.177Z,57.70
2018-05-31T10:23:24.413Z,56.60
2018-05-31T10:25:50.633Z,55.60
2018-05-31T10:28:17.772Z,53.50
2018-05-31T10:30:43.997Z,53.50
2018-05-31T10:33:10.255Z,53.50
2018-05-31T10:35:36.511Z,53.10
2018-05-31T10:38:03.231Z,53.30
2018-05-31T10:40:29.471Z,53.10
2018-05-31T10:42:55.742Z,51.70
2018-05-31T10:45:21.972Z,50.90
2018-05-31T10:47:48.211Z,51.10
2018-05-31T10:50:14.455Z,50.50
2018-05-31T10:52:40.666Z,50.20
2018-05-31T10:55:06.910Z,49.60
2018-05-31T10:57:33.164Z,49.00
2018-05-31T10:59:59.401Z,48.60
2018-05-31T11:02:25.661Z,47.60
2018-05-31T11:04:52.662Z,47.80
2018-05-31T11:07:18.879Z,47.80
2018-05-31T11:09:45.099Z,48.30
2018-05-31T11:12:11.345Z,47.60
2018-05-31T11:14:37.575Z,47.00
2018-05-31T11:17:03.826Z,46.30
2018-05-31T11:19:30.070Z,45.70
2018-05-31T11:21:56.305Z,46.30
2018-05-31T11:24:22.526Z,46.90
2018-05-31T11:26:48.785Z,46.30
2018-05-31T11:29:15.027Z,45.80
2018-05-31T11:31:41.252Z,45.70
2018-05-31T11:34:07.520Z,45.80
2018-05-31T11:36:34.477Z,45.30
2018-05-31T11:39:00.716Z,45.20
2018-05-31T11:41:27.717Z,44.30
2018-05-31T11:43:53.959Z,44.20
2018-05-31T11:46:20.188Z,44.30
2018-05-31T11:48:46.443Z,44.40
2018-05-31T11:51:12.678Z,44.10
2018-05-31T11:53:38.905Z,45.10
2018-05-31T11:56:05.173Z,44.90
2018-05-31T11:58:31.416Z,44.40
2018-05-31T12:00:57.638Z,45.50
2018-05-31T12:03:23.899Z,46.50
2018-05-31T12:05:50.143Z,47.50
2018-05-31T12:08:16.389Z,46.60
2018-05-31T12:10:42.679Z,45.60
2018-05-31T12:13:08.930Z,45.30
2018-05-31T12:15:35.169Z,45.50
2018-05-31T12:18:01.435Z,45.70
2018-05-31T12:20:27.674Z,45.40
2018-05-31T12:22:53.892Z,46.20
2018-05-31T12:25:20.155Z,47.90
2018-05-31T12:27:46.403Z,49.50
2018-05-31T12:30:12.658Z,50.80
2018-05-31T12:32:38.928Z,51.70
2018-05-31T12:35:05.215Z,52.70
2018-05-31T12:37:31.443Z,53.30
2018-05-31T12:39:57.739Z,53.60
2018-05-31T12:42:23.951Z,53.80
2018-05-31T12:44:50.179Z,53.70
2018-05-31T12:47:16.570Z,53.60
2018-05-31T12:49:42.789Z,53.30
2018-05-31T12:52:09.035Z,52.80
2018-05-31T12:54:35.312Z,51.90
2018-05-31T12:57:01.524Z,49.30
2018-05-31T12:59:27.744Z,48.60
2018-05-31T13:01:54.002Z,47.50
2018-05-31T13:04:20.246Z,46.50
2018-05-31T13:06:46.489Z,46.30
2018-05-31T13:09:12.728Z,46.50
2018-05-31T13:11:38.966Z,46.80
2018-05-31T13:14:05.213Z,47.50
2018-05-31T13:16:31.488Z,48.20
2018-05-31T13:18:57.715Z,48.50
2018-05-31T13:21:24.670Z,49.60
2018-05-31T13:23:50.910Z,49.60
2018-05-31T13:26:17.145Z,50.00
2018-05-31T13:28:43.384Z,50.10
2018-05-31T13:31:09.628Z,50.30
2018-05-31T13:33:35.865Z,50.40
2018-05-31T13:36:02.875Z,50.40
2018-05-31T13:38:29.126Z,50.40
2018-05-31T13:40:55.396Z,50.20
2018-05-31T13:43:21.619Z,50.10
2018-05-31T13:45:48.063Z,50.40
2018-05-31T13:48:14.279Z,50.90
2018-05-31T13:50:40.487Z,51.20
2018-05-31T13:53:07.471Z,51.80
2018-05-31T13:55:33.698Z,52.40
2018-05-31T13:57:59.902Z,52.30
2018-05-31T14:00:26.145Z,52.80
2018-05-31T14:02:52.371Z,53.00
2018-05-31T14:05:18.615Z,53.50
2018-05-31T14:07:44.857Z,54.00
2018-05-31T14:10:11.073Z,54.10
2018-05-31T14:12:37.298Z,54.40
2018-05-31T14:15:03.581Z,54.50
2018-05-31T14:17:29.805Z,54.40
2018-05-31T14:19:56.018Z,54.40
2018-05-31T14:22:22.261Z,54.50
2018-05-31T14:24:48.462Z,54.60
2018-05-31T14:27:15.437Z,54.60
2018-05-31T14:29:41.676Z,54.60
2018-05-31T14:32:07.901Z,55.20
2018-05-31T14:34:34.857Z,56.70
2018-05-31T14:37:01.831Z,56.80
2018-05-31T14:39:28.782Z,57.20
2018-05-31T14:41:55.795Z,57.60
2018-05-31T14:44:22.057Z,57.60
2018-05-31T14:46:48.297Z,58.10
2018-05-31T14:49:14.535Z,57.80
2018-05-31T14:51:41.193Z,57.30
2018-05-31T14:54:07.453Z,57.70
2018-05-31T14:56:33.679Z,57.90
2018-05-31T14:58:59.959Z,58.40
2018-05-31T15:01:26.222Z,58.70
2018-05-31T15:03:52.463Z,58.70
2018-05-31T15:06:18.713Z,58.50
2018-05-31T15:08:44.946Z,58.30
2018-05-31T15:11:11.191Z,58.60
2018-05-31T15:13:37.475Z,59.30
2018-05-31T15:16:04.491Z,60.90
2018-05-31T15:18:30.716Z,60.90
2018-05-31T15:20:56.960Z,61.30
2018-05-31T15:23:23.204Z,61.90
2018-05-31T15:25:49.421Z,62.70
2018-05-31T15:28:15.658Z,63.20
2018-05-31T15:30:41.875Z,63.70
2018-05-31T15:33:08.114Z,63.90
2018-05-31T15:35:34.578Z,63.60
2018-05-31T15:38:00.784Z,62.90
2018-05-31T15:40:27.011Z,62.10
2018-05-31T15:42:53.296Z,61.80
2018-05-31T15:45:20.281Z,62.10
2018-05-31T15:47:46.509Z,62.10
2018-05-31T15:50:12.776Z,62.40
2018-05-31T15:52:39.020Z,62.50
2018-05-31T15:55:05.239Z,62.80
2018-05-31T15:57:31.484Z,63.30
2018-05-31T15:59:57.727Z,63.60
2018-05-31T16:02:23.996Z,64.30
2018-05-31T16:04:50.271Z,64.20
2018-05-31T16:07:17.246Z,64.10
2018-05-31T16:09:43.496Z,64.00
2018-05-31T16:12:09.794Z,64.00
2018-05-31T16:14:36.022Z,64.30
2018-05-31T16:17:02.254Z,64.90
2018-05-31T16:19:28.502Z,65.90
2018-05-31T16:21:54.724Z,66.80
2018-05-31T16:24:20.930Z,67.70
2018-05-31T16:26:47.198Z,68.70
2018-05-31T16:29:13.434Z,69.90
2018-05-31T16:31:39.657Z,70.80
2018-05-31T16:34:06.088Z,71.50
2018-05-31T16:36:32.307Z,72.10
2018-05-31T16:38:58.561Z,72.90
2018-05-31T16:41:25.569Z,74.20
2018-05-31T16:43:52.435Z,74.20
2018-05-31T16:46:18.656Z,74.20
2018-05-31T16:48:44.912Z,75.10
2018-05-31T16:51:11.160Z,74.70
2018-05-31T16:53:37.414Z,75.00
2018-05-31T16:56:03.669Z,75.30
2018-05-31T16:58:29.953Z,75.50
2018-05-31T17:00:56.199Z,75.30
2018-05-31T17:03:22.483Z,75.20
2018-05-31T17:05:48.746Z,75.40
2018-05-31T17:08:15.766Z,76.00
2018-05-31T17:10:42.027Z,76.00
2018-05-31T17:13:08.269Z,76.70
2018-05-31T17:15:34.517Z,77.60
2018-05-31T17:18:00.823Z,78.20
2018-05-31T17:20:27.065Z,78.80
2018-05-31T17:22:53.333Z,79.60
2018-05-31T17:25:19.664Z,80.50
2018-05-31T17:27:45.890Z,81.20
2018-05-31T17:30:12.135Z,82.30
2018-05-31T17:32:38.413Z,83.30
2018-05-31T17:35:05.420Z,84.10
2018-05-31T17:37:31.673Z,84.10
2018-05-31T17:39:57.977Z,84.60
2018-05-31T17:42:24.206Z,85.00
2018-05-31T17:44:50.682Z,84.70
2018-05-31T17:47:16.952Z,84.60
2018-05-31T17:49:43.206Z,84.70
2018-05-31T17:52:09.426Z,84.70
2018-05-31T17:54:35.698Z,84.90
2018-05-31T17:57:02.742Z,85.60
2018-05-31T17:59:29.018Z,85.50
2018-05-31T18:01:55.313Z,85.60
2018-05-31T18:04:21.577Z,85.50
2018-05-31T18:06:47.875Z,85.30
2018-05-31T18:09:14.244Z,85.00
2018-05-31T18:11:40.491Z,84.80
2018-05-31T18:14:06.759Z,84.50
2018-05-31T18:16:33.813Z,84.50
2018-05-31T18:19:00.811Z,84.90
2018-05-31T18:21:27.165Z,84.90
2018-05-31T18:23:53.447Z,85.20
2018-05-31T18:26:20.478Z,85.30
2018-05-31T18:28:46.782Z,85.20
2018-05-31T18:31:13.142Z,85.30
2018-05-31T18:33:39.467Z,85.30
2018-05-31T18:36:05.774Z,85.30
2018-05-31T18:38:32.136Z,85.30
2018-05-31T18:40:58.429Z,85.10
2018-05-31T18:43:24.727Z,84.90
2018-05-31T18:45:51.552Z,84.80
2018-05-31T18:48:17.857Z,84.90
2018-05-31T18:50:44.136Z,84.90
2018-05-31T18:53:10.458Z,85.10
2018-05-31T18:55:36.780Z,85.60
2018-05-31T18:58:03.084Z,85.90
2018-05-31T19:00:30.138Z,86.40
2018-05-31T19:02:56.455Z,86.30
2018-05-31T19:05:22.740Z,85.90
2018-05-31T19:07:49.174Z,85.90
2018-05-31T19:10:15.483Z,86.10
2018-05-31T19:12:47.690Z,86.40
2018-05-31T19:15:21.632Z,87.10
2018-05-31T19:17:41.204Z,87.10
2018-05-31T19:20:07.527Z,87.00
2018-05-31T19:22:33.925Z,87.20
2018-05-31T19:25:06.265Z,87.60
2018-05-31T19:27:33.296Z,88.20
2018-05-31T19:30:05.678Z,88.20
2018-05-31T19:32:32.067Z,88.30
2018-05-31T19:34:58.277Z,88.60
2018-05-31T19:37:24.607Z,88.90
2018-05-31T19:39:50.892Z,88.70
2018-05-31T19:42:23.979Z,89.20
2018-05-31T19:44:50.302Z,89.20
2018-05-31T19:47:16.632Z,90.00
2018-05-31T19:49:42.938Z,90.20
2018-05-31T19:52:15.273Z,90.60
2018-05-31T19:54:42.470Z,90.40
2018-05-31T19:57:08.781Z,90.50
2018-05-31T19:59:41.015Z,90.70
2018-05-31T20:02:28.151Z,90.80
2018-05-31T20:04:54.629Z,90.80
2018-05-31T20:07:20.978Z,91.00
2018-05-31T20:09:47.301Z,91.40
2018-05-31T20:12:13.609Z,91.60
2018-05-31T20:14:39.883Z,91.90
2018-05-31T20:17:06.175Z,92.10
2018-05-31T20:19:32.717Z,92.20
2018-05-31T20:21:59.751Z,92.30
2018-05-31T20:24:26.013Z,92.30
2018-05-31T20:26:53.062Z,92.50
2018-05-31T20:29:19.342Z,92.50
2018-05-31T20:31:45.662Z,92.50
2018-05-31T20:34:12.724Z,92.70
2018-05-31T20:36:39.056Z,92.70
2018-05-31T20:39:06.095Z,92.90
2018-05-31T20:41:32.407Z,92.90
2018-05-31T20:43:58.688Z,93.00
2018-05-31T20:46:25.195Z,93.10
2018-05-31T20:48:51.509Z,93.30
2018-05-31T20:51:17.804Z,93.40
2018-05-31T20:53:44.096Z,93.60
2018-05-31T20:56:10.472Z,93.80
2018-05-31T20:58:36.796Z,94.00
2018-05-31T21:01:03.060Z,94.30
2018-05-31T21:03:29.344Z,94.40
2018-05-31T21:05:55.568Z,94.60
2018-05-31T21:08:22.923Z,94.50
2018-05-31T21:10:49.214Z,94.70
2018-05-31T21:13:15.481Z,94.80
2018-05-31T21:15:41.761Z,94.90
2018-05-31T21:18:08.012Z,94.90
2018-05-31T21:20:34.256Z,94.90
2018-05-31T21:23:01.222Z,95.20
2018-05-31T21:25:27.565Z,95.20
2018-05-31T21:27:53.806Z,95.30
2018-05-31T21:30:20.780Z,95.50
2018-05-31T21:32:47.017Z,95.50
2018-05-31T21:35:13.247Z,95.50
2018-05-31T21:37:39.480Z,95.40
2018-05-31T21:40:06.501Z,95.60
2018-05-31T21:42:32.716Z,95.60
2018-05-31T21:44:58.941Z,95.70
2018-05-31T21:47:25.273Z,95.80
2018-05-31T21:49:52.235Z,95.80
2018-05-31T21:52:19.189Z,95.90
2018-05-31T21:54:46.191Z,95.90
2018-05-31T21:57:12.403Z,95.90
2018-05-31T21:59:38.619Z,95.90
2018-05-31T22:02:05.771Z,95.90
2018-05-31T22:04:32.754Z,95.90
2018-05-31T22:06:59.707Z,95.80
2018-05-31T22:09:25.976Z,95.90
2018-05-31T22:11:52.219Z,95.90
2018-05-31T22:14:18.424Z,95.90
2018-05-31T22:16:45.387Z,96.20
2018-05-31T22:19:11.653Z,96.20
2018-05-31T22:21:37.879Z,96.30
2018-05-31T22:24:04.149Z,96.50
2018-05-31T22:26:30.395Z,96.60
2018-05-31T22:28:56.618Z,97.00
2018-05-31T22:31:22.982Z,96.90
2018-05-31T22:33:49.187Z,97.00
2018-05-31T22:36:15.388Z,97.20
2018-05-31T22:38:41.642Z,97.20
2018-05-31T22:41:08.634Z,97.60
2018-05-31T22:43:34.840Z,97.60
2018-05-31T22:46:01.929Z,97.40
2018-05-31T22:48:29.220Z,97.30
2018-05-31T22:50:55.426Z,97.30
2018-05-31T22:53:21.668Z,97.30
2018-05-31T22:55:47.878Z,97.30
2018-05-31T22:58:14.089Z,97.20
2018-05-31T23:00:40.328Z,97.20
2018-05-31T23:03:06.572Z,97.20
2018-05-31T23:05:32.794Z,97.20
2018-05-31T23:07:59.018Z,97.20
2018-05-31T23:10:25.248Z,97.20
2018-05-31T23:12:51.475Z,97.60
2018-05-31T23:15:18.530Z,97.40
2018-05-31T23:17:45.502Z,97.40
2018-05-31T23:20:12.460Z,97.40
2018-05-31T23:22:38.703Z,97.40
2018-05-31T23:25:04.930Z,97.30
2018-05-31T23:27:31.883Z,97.60
2018-05-31T23:29:58.864Z,97.70
2018-05-31T23:32:25.082Z,97.70
2018-05-31T23:34:51.306Z,97.70
2018-05-31T23:37:17.671Z,97.80
2018-05-31T23:39:43.862Z,97.80
2018-05-31T23:42:10.065Z,97.80
2018-05-31T23:44:36.311Z,97.70
2018-05-31T23:47:02.553Z,97.70
2018-05-31T23:49:28.943Z,98.00
2018-05-31T23:51:55.249Z,97.60
2018-05-31T23:54:21.468Z,97.60
2018-05-31T23:56:47.677Z,97.60
2018-05-31T23:59:13.920Z,97.50
